createdAt,value
2019-03-21T00:00:50.190Z,6.2
2019-03-21T00:02:50.172Z,6.1
2019-03-21T00:04:49.529Z,6.1
2019-03-21T00:06:49.686Z,6.1
2019-03-21T00:08:49.586Z,6.8
2019-03-21T00:10:49.608Z,6.3
2019-03-21T00:12:50.523Z,6.5
2019-03-21T00:14:50.438Z,6.5
2019-03-21T00:16:49.559Z,6.1
2019-03-21T00:18:50.423Z,6.0
2019-03-21T00:20:50.344Z,6.0
2019-03-21T00:22:50.214Z,6.4
2019-03-21T00:24:50.140Z,6.4
2019-03-21T00:26:50.240Z,5.8
2019-03-21T00:28:50.164Z,5.8
2019-03-21T00:30:50.145Z,6.0
2019-03-21T00:32:50.105Z,6.0
2019-03-21T00:34:50.417Z,6.0
2019-03-21T00:36:50.418Z,6.1
2019-03-21T00:38:50.412Z,6.1
2019-03-21T00:40:50.330Z,6.1
2019-03-21T00:42:50.206Z,6.2
2019-03-21T00:44:50.086Z,6.2
2019-03-21T00:46:50.151Z,5.7
2019-03-21T00:48:50.026Z,5.8
2019-03-21T00:50:49.946Z,5.8
2019-03-21T00:52:49.800Z,5.8
2019-03-21T00:54:49.691Z,5.8
2019-03-21T00:56:49.705Z,6.1
2019-03-21T00:58:49.648Z,6.1
2019-03-21T01:00:49.565Z,6.0
2019-03-21T01:02:50.489Z,6.0
2019-03-21T01:04:49.719Z,5.9
2019-03-21T01:06:49.698Z,6.5
2019-03-21T01:08:49.552Z,6.3
2019-03-21T01:10:50.488Z,6.2
2019-03-21T01:12:50.461Z,6.2
2019-03-21T01:14:50.480Z,6.5
2019-03-21T01:16:49.607Z,6.2
2019-03-21T01:18:49.631Z,6.7
2019-03-21T01:20:50.535Z,6.4
2019-03-21T01:22:50.369Z,6.4
2019-03-21T01:24:50.209Z,6.3
2019-03-21T01:26:50.256Z,6.8
2019-03-21T01:28:50.134Z,6.8
2019-03-21T01:30:49.983Z,6.8
2019-03-21T01:32:49.994Z,6.8
2019-03-21T01:34:50.268Z,6.7
2019-03-21T01:36:50.288Z,6.7
2019-03-21T01:38:50.327Z,7.1
2019-03-21T01:40:50.285Z,7.1
2019-03-21T01:42:50.306Z,7.5
2019-03-21T01:44:50.214Z,7.0
2019-03-21T01:46:50.278Z,7.6
2019-03-21T01:48:50.167Z,7.3
2019-03-21T01:50:50.023Z,7.3
2019-03-21T01:52:49.956Z,7.3
2019-03-21T01:54:49.837Z,7.3
2019-03-21T01:56:49.832Z,8.2
2019-03-21T01:58:49.766Z,7.8
2019-03-21T02:00:49.688Z,7.8
2019-03-21T02:02:49.522Z,7.5
2019-03-21T02:04:49.801Z,7.4
2019-03-21T02:06:49.861Z,7.5
2019-03-21T02:08:49.822Z,7.2
2019-03-21T02:10:49.623Z,8.1
2019-03-21T02:12:49.627Z,8.1
2019-03-21T02:14:52.654Z,7.9
2019-03-21T02:16:49.765Z,7.9
2019-03-21T02:18:49.667Z,8.3
2019-03-21T02:20:49.671Z,8.3
2019-03-21T02:22:49.830Z,7.9
2019-03-21T02:24:49.856Z,7.8
2019-03-21T02:26:50.113Z,8.1
2019-03-21T02:28:50.069Z,8.2
2019-03-21T02:30:50.042Z,8.2
2019-03-21T02:32:50.032Z,7.8
2019-03-21T02:34:49.545Z,7.1
2019-03-21T02:36:49.542Z,7.4
2019-03-21T02:38:49.628Z,7.4
2019-03-21T02:40:50.515Z,8.5
2019-03-21T02:42:50.360Z,8.1
2019-03-21T02:44:50.417Z,7.7
2019-03-21T02:46:49.590Z,8.3
2019-03-21T02:48:49.573Z,7.9
2019-03-21T02:50:50.463Z,7.9
2019-03-21T02:52:50.489Z,8.7
2019-03-21T02:54:50.396Z,7.9
2019-03-21T02:56:50.519Z,7.7
2019-03-21T02:58:50.350Z,8.4
2019-03-21T03:00:50.288Z,8.4
2019-03-21T03:02:50.246Z,8.4
2019-03-21T03:04:50.472Z,8.2
2019-03-21T03:06:49.541Z,7.9
2019-03-21T03:08:49.798Z,7.9
2019-03-21T03:10:49.754Z,8.2
2019-03-21T03:12:49.628Z,8.0
2019-03-21T03:14:49.558Z,7.8
2019-03-21T03:16:50.553Z,7.8
2019-03-21T03:18:50.508Z,8.0
2019-03-21T03:20:50.370Z,8.0
2019-03-21T03:22:50.375Z,8.1
2019-03-21T03:24:50.290Z,8.0
2019-03-21T03:26:50.401Z,8.0
2019-03-21T03:28:50.334Z,8.1
2019-03-21T03:30:50.363Z,8.1
2019-03-21T03:32:50.306Z,7.8
2019-03-21T03:34:49.675Z,8.4
2019-03-21T03:36:49.793Z,8.4
2019-03-21T03:38:49.671Z,7.6
2019-03-21T03:40:49.613Z,7.8
2019-03-21T03:42:50.477Z,7.7
2019-03-21T03:44:50.376Z,8.1
2019-03-21T03:46:50.482Z,8.1
2019-03-21T03:48:50.430Z,7.4
2019-03-21T03:50:50.301Z,7.9
2019-03-21T03:52:50.194Z,7.9
2019-03-21T03:54:50.122Z,7.4
2019-03-21T03:56:50.093Z,7.2
2019-03-21T03:58:50.124Z,7.2
2019-03-21T04:00:50.160Z,7.2
2019-03-21T04:02:50.135Z,7.1
2019-03-21T04:04:50.455Z,7.1
2019-03-21T04:06:50.491Z,7.1
2019-03-21T04:08:50.377Z,7.5
2019-03-21T04:10:50.200Z,7.0
2019-03-21T04:12:50.144Z,7.0
2019-03-21T04:14:50.183Z,7.5
2019-03-21T04:16:50.161Z,7.2
2019-03-21T04:18:50.047Z,7.6
2019-03-21T04:20:49.919Z,7.3
2019-03-21T04:22:49.800Z,7.3
2019-03-21T04:24:49.877Z,7.2
2019-03-21T04:26:49.843Z,7.2
2019-03-21T04:28:49.820Z,7.9
2019-03-21T04:30:49.754Z,7.2
2019-03-21T04:32:49.719Z,7.2
2019-03-21T04:34:49.910Z,7.3
2019-03-21T04:36:49.877Z,7.3
2019-03-21T04:38:49.742Z,7.2
2019-03-21T04:40:49.619Z,7.3
2019-03-21T04:42:50.455Z,6.9
2019-03-21T04:44:50.363Z,7.1
2019-03-21T04:46:50.373Z,7.1
2019-03-21T04:48:50.244Z,7.2
2019-03-21T04:50:50.123Z,7.5
2019-03-21T04:52:50.021Z,7.1
2019-03-21T04:54:49.882Z,7.1
2019-03-21T04:56:49.889Z,7.2
2019-03-21T04:58:49.786Z,7.1
2019-03-21T05:00:49.694Z,6.8
2019-03-21T05:02:49.536Z,6.8
2019-03-21T05:04:49.867Z,6.4
2019-03-21T05:06:49.787Z,6.4
2019-03-21T05:08:49.729Z,6.5
2019-03-21T05:10:49.546Z,6.6
2019-03-21T05:12:49.608Z,6.6
2019-03-21T05:14:49.634Z,6.9
2019-03-21T05:16:49.713Z,6.7
2019-03-21T05:18:49.650Z,7.1
2019-03-21T05:20:49.598Z,7.1
2019-03-21T05:22:49.543Z,7.1
2019-03-21T05:24:50.511Z,6.9
2019-03-21T05:26:50.231Z,6.6
2019-03-21T05:28:50.123Z,6.2
2019-03-21T05:30:49.926Z,6.2
2019-03-21T05:32:49.842Z,7.2
2019-03-21T05:34:50.231Z,6.6
2019-03-21T05:36:50.699Z,6.6
2019-03-21T05:38:49.543Z,7.0
2019-03-21T05:40:50.435Z,7.7
2019-03-21T05:42:50.328Z,7.7
2019-03-21T05:44:50.210Z,7.4
2019-03-21T05:46:50.324Z,8.1
2019-03-21T05:48:50.254Z,11.6
2019-03-21T05:50:50.188Z,8.5
2019-03-21T05:52:50.146Z,8.5
2019-03-21T05:54:50.088Z,7.7
2019-03-21T05:56:50.135Z,8.2
2019-03-21T05:58:50.009Z,8.0
2019-03-21T06:00:51.612Z,7.9
2019-03-21T06:02:49.529Z,7.9
2019-03-21T06:04:49.908Z,8.4
2019-03-21T06:06:49.883Z,7.8
2019-03-21T06:08:49.756Z,7.2
2019-03-21T06:10:49.707Z,7.2
2019-03-21T06:12:49.546Z,7.0
2019-03-21T06:14:50.355Z,6.8
2019-03-21T06:16:50.404Z,6.8
2019-03-21T06:18:50.382Z,6.9
2019-03-21T06:20:49.643Z,6.8
2019-03-21T06:22:50.440Z,6.8
2019-03-21T06:24:50.302Z,7.0
2019-03-21T06:26:50.679Z,6.5
2019-03-21T06:28:49.541Z,6.5
2019-03-21T06:30:50.342Z,6.7
2019-03-21T06:32:50.396Z,7.7
2019-03-21T06:34:49.619Z,6.6
2019-03-21T06:36:50.363Z,6.9
2019-03-21T06:38:50.246Z,6.9
2019-03-21T06:40:50.268Z,6.5
2019-03-21T06:42:50.141Z,6.9
2019-03-21T06:44:50.186Z,7.4
2019-03-21T06:46:50.466Z,7.4
2019-03-21T06:48:49.529Z,7.0
2019-03-21T06:50:49.667Z,15.1
2019-03-21T06:52:49.689Z,11.6
2019-03-21T06:54:49.859Z,7.5
2019-03-21T06:56:50.108Z,6.9
2019-03-21T06:58:52.803Z,6.4
2019-03-21T07:00:49.873Z,6.4
2019-03-21T07:02:49.874Z,7.0
2019-03-21T07:04:50.264Z,7.1
2019-03-21T07:06:50.446Z,7.1
2019-03-21T07:08:49.565Z,6.2
2019-03-21T07:10:49.570Z,6.2
2019-03-21T07:12:49.627Z,6.7
2019-03-21T07:14:49.616Z,6.8
2019-03-21T07:17:00.495Z,6.8
2019-03-21T07:18:49.887Z,6.4
2019-03-21T07:20:50.013Z,6.2
2019-03-21T07:22:50.102Z,6.4
2019-03-21T07:24:50.124Z,6.9
2019-03-21T07:26:50.293Z,6.9
2019-03-21T07:28:50.327Z,6.9
2019-03-21T07:30:50.315Z,5.8
2019-03-21T07:32:50.389Z,5.4
2019-03-21T07:34:49.811Z,5.4
2019-03-21T07:36:49.969Z,5.3
2019-03-21T07:38:49.998Z,5.2
2019-03-21T07:40:50.028Z,5.4
2019-03-21T07:42:50.023Z,5.1
2019-03-21T07:44:50.037Z,5.3
2019-03-21T07:46:50.179Z,5.3
2019-03-21T07:48:50.304Z,5.5
2019-03-21T07:50:50.372Z,5.3
2019-03-21T07:52:49.574Z,5.4
2019-03-21T07:54:49.624Z,5.4
2019-03-21T07:56:49.823Z,5.5
2019-03-21T07:58:49.855Z,5.5
2019-03-21T08:00:49.958Z,5.4
2019-03-21T08:02:50.036Z,5.9
2019-03-21T08:04:50.459Z,5.4
2019-03-21T08:06:49.633Z,5.4
2019-03-21T08:08:49.777Z,5.0
2019-03-21T08:10:49.843Z,6.8
2019-03-21T08:12:49.935Z,6.8
2019-03-21T08:14:50.022Z,6.0
2019-03-21T08:16:50.195Z,6.0
2019-03-21T08:18:50.281Z,6.5
2019-03-21T08:20:59.695Z,6.3
2019-03-21T08:22:50.201Z,6.3
2019-03-21T08:24:50.290Z,6.3
2019-03-21T08:26:49.539Z,6.2
2019-03-21T08:28:49.535Z,6.0
2019-03-21T08:30:49.640Z,5.3
2019-03-21T08:32:49.682Z,5.9
2019-03-21T08:34:50.186Z,5.9
2019-03-21T08:36:50.342Z,5.9
2019-03-21T08:38:50.381Z,5.3
2019-03-21T08:40:50.452Z,7.2
2019-03-21T08:42:49.550Z,5.5
2019-03-21T08:44:50.488Z,5.5
2019-03-21T08:46:49.616Z,5.2
2019-03-21T08:48:49.624Z,5.3
2019-03-21T08:50:49.757Z,5.6
2019-03-21T08:52:49.815Z,4.8
2019-03-21T08:54:49.947Z,4.8
2019-03-21T08:56:50.072Z,5.2
2019-03-21T08:58:50.231Z,4.9
2019-03-21T09:00:50.292Z,4.8
2019-03-21T09:02:50.275Z,4.8
2019-03-21T09:04:49.705Z,4.9
2019-03-21T09:06:49.818Z,4.8
2019-03-21T09:08:49.708Z,5.0
2019-03-21T09:10:49.752Z,4.8
2019-03-21T09:12:49.862Z,4.8
2019-03-21T09:14:49.930Z,5.1
2019-03-21T09:16:50.041Z,4.8
2019-03-21T09:18:50.035Z,5.0
2019-03-21T09:20:50.094Z,4.8
2019-03-21T09:22:50.277Z,4.8
2019-03-21T09:24:50.304Z,4.7
2019-03-21T09:26:50.444Z,4.6
2019-03-21T09:28:50.506Z,5.0
2019-03-21T09:30:50.959Z,4.8
2019-03-21T09:32:50.131Z,4.8
2019-03-21T09:34:49.602Z,4.7
2019-03-21T09:36:49.864Z,4.9
2019-03-21T09:38:49.897Z,4.9
2019-03-21T09:40:50.028Z,4.4
2019-03-21T09:42:50.147Z,4.4
2019-03-21T09:44:50.296Z,4.5
2019-03-21T09:46:51.331Z,4.5
2019-03-21T09:48:50.382Z,4.2
2019-03-21T09:50:50.424Z,4.4
2019-03-21T09:52:49.529Z,4.4
2019-03-21T09:54:49.552Z,4.2
2019-03-21T09:56:49.726Z,4.1
2019-03-21T09:58:49.782Z,4.6
2019-03-21T10:00:49.801Z,5.1
2019-03-21T10:02:49.794Z,5.1
2019-03-21T10:04:50.234Z,4.3
2019-03-21T10:06:50.433Z,4.3
2019-03-21T10:08:50.462Z,4.5
2019-03-21T10:10:49.563Z,4.5
2019-03-21T10:12:49.558Z,4.5
2019-03-21T10:14:49.600Z,4.7
2019-03-21T10:16:49.739Z,4.1
2019-03-21T10:18:49.710Z,4.2
2019-03-21T10:20:49.713Z,4.2
2019-03-21T10:22:49.903Z,4.4
2019-03-21T10:24:49.858Z,4.1
2019-03-21T10:26:50.106Z,4.3
2019-03-21T10:28:50.078Z,4.3
2019-03-21T10:30:50.186Z,4.5
2019-03-21T10:32:50.184Z,4.2
2019-03-21T10:34:49.532Z,4.6
2019-03-21T10:36:49.592Z,4.8
2019-03-21T10:38:49.591Z,4.8
2019-03-21T10:40:49.652Z,4.4
2019-03-21T10:42:49.749Z,4.1
2019-03-21T10:44:49.712Z,4.6
2019-03-21T10:46:49.880Z,4.6
2019-03-21T10:48:49.837Z,3.9
2019-03-21T10:50:49.906Z,3.9
2019-03-21T10:52:49.943Z,4.4
2019-03-21T10:54:50.118Z,4.1
2019-03-21T10:56:50.272Z,4.3
2019-03-21T10:58:50.343Z,4.3
2019-03-21T11:00:50.405Z,4.3
2019-03-21T11:02:50.409Z,3.7
2019-03-21T11:04:49.811Z,4.1
2019-03-21T11:06:49.964Z,3.8
2019-03-21T11:08:50.386Z,3.3
2019-03-21T11:10:50.417Z,3.3
2019-03-21T11:12:50.445Z,4.0
2019-03-21T11:14:49.573Z,4.0
2019-03-21T11:16:49.797Z,3.2
2019-03-21T11:18:49.814Z,3.2
2019-03-21T11:20:49.822Z,3.7
2019-03-21T11:22:49.939Z,3.1
2019-03-21T11:24:49.941Z,3.1
2019-03-21T11:26:50.048Z,3.1
2019-03-21T11:28:50.085Z,2.8
2019-03-21T11:30:50.161Z,2.9
2019-03-21T11:32:50.171Z,3.0
2019-03-21T11:34:49.617Z,3.1
2019-03-21T11:36:49.811Z,3.1
2019-03-21T11:38:49.819Z,2.9
2019-03-21T11:40:49.853Z,2.6
2019-03-21T11:42:49.910Z,2.4
2019-03-21T11:44:49.943Z,2.5
2019-03-21T11:46:50.034Z,2.5
2019-03-21T11:48:50.030Z,2.4
2019-03-21T11:50:50.199Z,2.5
2019-03-21T11:52:50.278Z,2.4
2019-03-21T11:54:50.330Z,2.3
2019-03-21T11:56:50.492Z,2.3
2019-03-21T11:58:49.578Z,2.6
2019-03-21T12:00:49.584Z,2.4
2019-03-21T12:02:49.709Z,2.4
2019-03-21T12:04:50.046Z,2.4
2019-03-21T12:06:50.513Z,2.4
2019-03-21T12:08:50.517Z,2.4
2019-03-21T12:10:49.532Z,3.6
2019-03-21T12:12:49.709Z,2.4
2019-03-21T12:14:49.738Z,2.4
2019-03-21T12:16:49.977Z,2.5
2019-03-21T12:18:49.995Z,2.5
2019-03-21T12:20:49.985Z,2.9
2019-03-21T12:22:50.057Z,2.7
2019-03-21T12:24:50.158Z,2.5
2019-03-21T12:26:50.298Z,2.5
2019-03-21T12:28:50.502Z,3.0
2019-03-21T12:30:49.574Z,2.8
2019-03-21T12:32:49.544Z,2.3
2019-03-21T12:34:50.123Z,2.4
2019-03-21T12:36:50.296Z,2.4
2019-03-21T12:38:50.291Z,2.8
2019-03-21T12:40:50.315Z,2.4
2019-03-21T12:42:50.459Z,2.4
2019-03-21T12:44:49.776Z,2.3
2019-03-21T12:46:49.849Z,2.3
2019-03-21T12:48:50.013Z,2.1
2019-03-21T12:50:49.975Z,2.2
2019-03-21T12:52:50.143Z,2.2
2019-03-21T12:54:50.231Z,2.4
2019-03-21T12:56:49.574Z,3.0
2019-03-21T12:58:49.735Z,2.4
2019-03-21T13:00:49.823Z,2.3
2019-03-21T13:02:49.882Z,2.2
2019-03-21T13:04:50.333Z,2.2
2019-03-21T13:06:50.475Z,2.4
2019-03-21T13:08:50.432Z,2.5
2019-03-21T13:10:50.482Z,2.7
2019-03-21T13:12:49.725Z,2.3
2019-03-21T13:14:49.715Z,2.3
2019-03-21T13:16:49.864Z,2.7
2019-03-21T13:18:49.972Z,3.3
2019-03-21T13:20:50.052Z,2.1
2019-03-21T13:22:53.831Z,2.1
2019-03-21T13:24:50.246Z,2.1
2019-03-21T13:26:50.462Z,1.8
2019-03-21T13:28:50.502Z,2.5
2019-03-21T13:30:49.598Z,1.9
2019-03-21T13:32:50.062Z,2.0
2019-03-21T13:34:49.606Z,2.0
2019-03-21T13:36:49.875Z,1.8
2019-03-21T13:38:49.872Z,2.5
2019-03-21T13:40:49.937Z,1.9
2019-03-21T13:42:49.983Z,1.9
2019-03-21T13:44:50.054Z,1.9
2019-03-21T13:46:50.272Z,1.7
2019-03-21T13:48:50.285Z,1.7
2019-03-21T13:50:50.261Z,1.8
2019-03-21T13:52:50.375Z,1.8
2019-03-21T13:54:50.492Z,1.7
2019-03-21T13:56:49.666Z,2.2
2019-03-21T13:58:49.802Z,2.3
2019-03-21T14:00:49.867Z,2.0
2019-03-21T14:02:49.986Z,2.0
2019-03-21T14:04:50.373Z,1.8
2019-03-21T14:06:49.612Z,1.8
2019-03-21T14:08:49.640Z,2.0
2019-03-21T14:10:49.980Z,2.0
2019-03-21T14:12:50.023Z,2.1
2019-03-21T14:14:50.069Z,2.0
2019-03-21T14:16:51.228Z,2.4
2019-03-21T14:18:50.266Z,2.3
2019-03-21T14:20:50.313Z,1.9
2019-03-21T14:22:50.391Z,1.9
2019-03-21T14:24:50.449Z,2.0
2019-03-21T14:26:49.633Z,1.9
2019-03-21T14:28:49.662Z,1.8
2019-03-21T14:30:49.763Z,1.8
2019-03-21T14:32:49.735Z,1.6
2019-03-21T14:34:50.205Z,1.9
2019-03-21T14:36:50.391Z,1.7
2019-03-21T14:38:50.429Z,1.7
2019-03-21T14:40:49.606Z,1.7
2019-03-21T14:42:49.944Z,1.6
2019-03-21T14:44:50.146Z,1.8
2019-03-21T14:46:50.400Z,1.5
2019-03-21T14:48:50.534Z,1.7
2019-03-21T14:50:49.565Z,1.7
2019-03-21T14:52:49.587Z,1.6
2019-03-21T14:54:49.595Z,1.6
2019-03-21T14:56:49.885Z,1.7
2019-03-21T14:58:49.922Z,1.7
2019-03-21T15:00:49.946Z,1.7
2019-03-21T15:02:50.093Z,1.8
2019-03-21T15:04:50.428Z,1.7
2019-03-21T15:06:49.580Z,1.8
2019-03-21T15:08:49.623Z,1.9
2019-03-21T15:10:49.633Z,1.9
2019-03-21T15:12:49.802Z,1.7
2019-03-21T15:14:49.844Z,1.9
2019-03-21T15:16:50.104Z,1.7
2019-03-21T15:18:50.133Z,1.7
2019-03-21T15:20:50.152Z,1.7
2019-03-21T15:22:50.300Z,1.7
2019-03-21T15:24:50.346Z,1.7
2019-03-21T15:26:51.450Z,1.7
2019-03-21T15:28:50.460Z,1.7
2019-03-21T15:30:49.525Z,1.9
2019-03-21T15:32:49.570Z,2.2
2019-03-21T15:34:50.076Z,1.9
2019-03-21T15:36:50.239Z,2.0
2019-03-21T15:38:50.338Z,2.0
2019-03-21T15:40:50.387Z,2.0
2019-03-21T15:42:49.518Z,1.8
2019-03-21T15:44:51.888Z,1.7
2019-03-21T15:46:50.079Z,1.7
2019-03-21T15:48:50.217Z,1.7
2019-03-21T15:50:50.301Z,1.8
2019-03-21T15:52:50.335Z,1.9
2019-03-21T15:54:50.370Z,1.8
2019-03-21T15:56:49.640Z,1.8
2019-03-21T15:58:49.763Z,1.9
2019-03-21T16:00:49.772Z,1.6
2019-03-21T16:02:49.815Z,1.6
2019-03-21T16:04:50.185Z,1.9
2019-03-21T16:06:50.504Z,1.9
2019-03-21T16:08:50.518Z,1.9
2019-03-21T16:10:50.473Z,1.9
2019-03-21T16:12:49.643Z,2.1
2019-03-21T16:14:49.679Z,2.1
2019-03-21T16:16:50.024Z,1.9
2019-03-21T16:18:50.086Z,2.1
2019-03-21T16:20:50.158Z,2.0
2019-03-21T16:22:50.183Z,2.2
2019-03-21T16:24:50.244Z,2.2
2019-03-21T16:26:50.542Z,2.0
2019-03-21T16:28:49.752Z,2.2
2019-03-21T16:30:49.831Z,2.2
2019-03-21T16:32:49.931Z,2.2
2019-03-21T16:34:50.373Z,2.1
2019-03-21T16:36:50.509Z,2.0
2019-03-21T16:38:49.536Z,2.0
2019-03-21T16:40:49.537Z,1.8
2019-03-21T16:42:49.723Z,1.9
2019-03-21T16:44:49.822Z,1.9
2019-03-21T16:46:50.055Z,1.7
2019-03-21T16:48:50.093Z,1.9
2019-03-21T16:50:50.345Z,2.1
2019-03-21T16:52:49.563Z,2.2
2019-03-21T16:54:49.650Z,2.2
2019-03-21T16:56:49.856Z,2.2
2019-03-21T16:58:49.926Z,2.4
2019-03-21T17:00:49.948Z,2.8
2019-03-21T17:02:49.970Z,2.9
2019-03-21T17:04:50.554Z,2.9
2019-03-21T17:06:49.940Z,2.6
2019-03-21T17:08:50.028Z,2.5
2019-03-21T17:10:50.140Z,2.5
2019-03-21T17:12:50.409Z,2.4
2019-03-21T17:14:49.600Z,2.4
2019-03-21T17:16:49.876Z,2.2
2019-03-21T17:18:50.075Z,2.4
2019-03-21T17:20:50.288Z,2.4
2019-03-21T17:22:50.463Z,2.8
2019-03-21T17:24:49.716Z,2.8
2019-03-21T17:26:49.854Z,2.8
2019-03-21T17:28:49.973Z,3.2
2019-03-21T17:30:49.961Z,3.1
2019-03-21T17:32:50.040Z,2.8
2019-03-21T17:34:50.312Z,2.8
2019-03-21T17:36:50.516Z,2.9
2019-03-21T17:38:49.583Z,2.9
2019-03-21T17:40:49.627Z,2.9
2019-03-21T17:42:49.583Z,3.2
2019-03-21T17:44:49.658Z,3.2
2019-03-21T17:46:49.899Z,3.7
2019-03-21T17:48:49.950Z,3.8
2019-03-21T17:50:50.031Z,3.8
2019-03-21T17:52:50.238Z,3.7
2019-03-21T17:54:50.274Z,3.8
2019-03-21T17:56:49.585Z,4.3
2019-03-21T17:58:49.583Z,4.3
2019-03-21T18:00:49.669Z,5.5
2019-03-21T18:02:49.668Z,5.5
2019-03-21T18:04:50.237Z,5.2
2019-03-21T18:06:50.460Z,4.0
2019-03-21T18:08:50.512Z,4.0
2019-03-21T18:10:50.513Z,4.1
2019-03-21T18:12:49.616Z,4.1
2019-03-21T18:14:49.599Z,3.8
2019-03-21T18:16:49.852Z,3.5
2019-03-21T18:18:49.863Z,3.4
2019-03-21T18:20:49.985Z,3.3
2019-03-21T18:22:49.994Z,3.3
2019-03-21T18:24:54.346Z,4.1
2019-03-21T18:26:49.632Z,3.5
2019-03-21T18:28:49.795Z,3.5
2019-03-21T18:30:49.826Z,3.5
2019-03-21T18:32:49.896Z,3.6
2019-03-21T18:34:50.278Z,3.7
2019-03-21T18:36:50.490Z,3.2
2019-03-21T18:38:59.858Z,3.5
2019-03-21T18:40:50.206Z,3.5
2019-03-21T18:42:50.310Z,3.4
2019-03-21T18:44:50.720Z,3.7
2019-03-21T18:46:50.033Z,3.5
2019-03-21T18:48:50.194Z,3.5
2019-03-21T18:50:50.322Z,3.2
2019-03-21T18:52:50.451Z,3.1
2019-03-21T18:54:50.553Z,3.3
2019-03-21T18:56:49.685Z,3.4
2019-03-21T18:58:49.864Z,3.7
2019-03-21T19:00:49.848Z,3.7
2019-03-21T19:02:49.975Z,3.5
2019-03-21T19:04:50.383Z,3.6
2019-03-21T19:06:49.786Z,3.8
2019-03-21T19:08:50.102Z,3.6
2019-03-21T19:10:50.299Z,3.6
2019-03-21T19:12:50.312Z,3.7
2019-03-21T19:14:50.408Z,3.6
2019-03-21T19:16:49.716Z,3.8
2019-03-21T19:18:49.752Z,3.8
2019-03-21T19:20:49.870Z,3.8
2019-03-21T19:22:50.175Z,4.0
2019-03-21T19:24:50.218Z,3.9
2019-03-21T19:26:50.414Z,4.3
2019-03-21T19:28:49.538Z,4.3
2019-03-21T19:30:49.683Z,3.8
2019-03-21T19:32:49.732Z,4.2
2019-03-21T19:34:50.228Z,4.2
2019-03-21T19:36:50.482Z,4.3
2019-03-21T19:38:49.565Z,4.3
2019-03-21T19:40:49.609Z,4.0
2019-03-21T19:42:49.669Z,4.0
2019-03-21T19:44:49.693Z,4.7
2019-03-21T19:46:49.912Z,4.7
2019-03-21T19:48:50.744Z,5.1
2019-03-21T19:50:49.762Z,5.1
2019-03-21T19:52:49.825Z,4.7
2019-03-21T19:54:49.914Z,5.1
2019-03-21T19:56:50.133Z,5.4
2019-03-21T19:58:50.269Z,5.4
2019-03-21T20:00:50.265Z,5.5
2019-03-21T20:02:50.354Z,5.4
2019-03-21T20:04:49.583Z,5.4
2019-03-21T20:06:50.032Z,5.8
2019-03-21T20:08:50.134Z,5.8
2019-03-21T20:10:50.220Z,5.4
2019-03-21T20:12:50.400Z,4.9
2019-03-21T20:14:49.598Z,5.2
2019-03-21T20:16:49.706Z,5.2
2019-03-21T20:18:49.763Z,4.9
2019-03-21T20:20:49.765Z,4.7
2019-03-21T20:22:49.816Z,4.9
2019-03-21T20:24:49.843Z,4.7
2019-03-21T20:26:50.094Z,4.7
2019-03-21T20:28:50.193Z,5.4
2019-03-21T20:30:50.225Z,5.7
2019-03-21T20:32:50.308Z,5.7
2019-03-21T20:34:49.723Z,6.2
2019-03-21T20:36:49.894Z,6.2
2019-03-21T20:38:49.945Z,6.2
2019-03-21T20:40:49.987Z,5.6
2019-03-21T20:42:50.050Z,5.9
2019-03-21T20:44:50.245Z,5.7
2019-03-21T20:46:50.472Z,5.7
2019-03-21T20:48:49.581Z,6.2
2019-03-21T20:50:49.623Z,5.8
2019-03-21T20:52:49.826Z,5.8
2019-03-21T20:54:49.846Z,5.8
2019-03-21T20:56:50.004Z,5.8
2019-03-21T20:58:49.995Z,5.6
2019-03-21T21:00:50.053Z,5.9
2019-03-21T21:02:50.152Z,5.8
2019-03-21T21:04:50.488Z,5.8
2019-03-21T21:06:49.778Z,6.4
2019-03-21T21:08:49.876Z,6.7
2019-03-21T21:10:49.937Z,6.5
2019-03-21T21:12:50.000Z,6.0
2019-03-21T21:14:50.033Z,6.0
2019-03-21T21:16:50.224Z,6.1
2019-03-21T21:18:50.244Z,6.3
2019-03-21T21:20:50.312Z,6.5
2019-03-21T21:22:50.383Z,6.6
2019-03-21T21:24:50.443Z,6.6
2019-03-21T21:26:49.624Z,6.8
2019-03-21T21:28:49.718Z,6.7
2019-03-21T21:30:49.816Z,6.5
2019-03-21T21:32:49.845Z,6.3
2019-03-21T21:34:50.172Z,6.3
2019-03-21T21:36:50.436Z,6.1
2019-03-21T21:38:50.456Z,6.3
2019-03-21T21:40:50.476Z,6.3
2019-03-21T21:42:50.595Z,6.7
2019-03-21T21:44:49.682Z,6.4
2019-03-21T21:46:49.923Z,6.8
2019-03-21T21:48:49.980Z,6.1
2019-03-21T21:50:50.025Z,6.1
2019-03-21T21:52:50.106Z,6.0
2019-03-21T21:54:50.222Z,6.0
2019-03-21T21:56:50.436Z,5.8
2019-03-21T21:58:50.477Z,5.5
2019-03-21T22:00:49.581Z,5.4
2019-03-21T22:02:49.569Z,5.4
2019-03-21T22:04:50.025Z,5.3
2019-03-21T22:06:50.346Z,5.4
2019-03-21T22:08:50.363Z,5.2
2019-03-21T22:10:50.345Z,4.9
2019-03-21T22:12:50.426Z,4.9
2019-03-21T22:14:50.475Z,5.2
2019-03-21T22:16:49.778Z,5.1
2019-03-21T22:18:49.930Z,5.4
2019-03-21T22:20:50.039Z,5.7
2019-03-21T22:22:50.133Z,5.7
2019-03-21T22:24:50.238Z,5.5
2019-03-21T22:26:49.543Z,5.3
2019-03-21T22:28:49.594Z,5.3
2019-03-21T22:30:49.612Z,4.8
2019-03-21T22:32:49.731Z,5.6
2019-03-21T22:34:50.077Z,5.3
2019-03-21T22:36:50.327Z,5.3
2019-03-21T22:38:49.544Z,5.1
2019-03-21T22:40:49.530Z,5.1
2019-03-21T22:42:49.753Z,5.5
2019-03-21T22:44:49.827Z,5.5
2019-03-21T22:46:50.158Z,5.1
2019-03-21T22:48:50.252Z,5.3
2019-03-21T22:50:50.331Z,5.3
2019-03-21T22:52:50.473Z,5.2
2019-03-21T22:54:49.617Z,5.2
2019-03-21T22:56:49.764Z,5.3
2019-03-21T22:58:49.863Z,5.2
2019-03-21T23:00:49.898Z,5.2
2019-03-21T23:02:50.039Z,5.5
2019-03-21T23:04:50.494Z,5.3
2019-03-21T23:06:49.824Z,5.3
2019-03-21T23:08:49.976Z,5.6
2019-03-21T23:10:50.153Z,5.6
2019-03-21T23:12:50.295Z,6.1
2019-03-21T23:14:50.514Z,6.2
2019-03-21T23:16:49.923Z,6.3
2019-03-21T23:18:50.040Z,6.3
2019-03-21T23:20:50.153Z,6.3
2019-03-21T23:22:50.242Z,6.5
2019-03-21T23:24:50.472Z,6.5
2019-03-21T23:26:53.462Z,6.6
2019-03-21T23:28:49.626Z,6.6
2019-03-21T23:30:49.686Z,7.1
2019-03-21T23:32:49.804Z,6.4
2019-03-21T23:34:50.308Z,6.7
2019-03-21T23:36:49.589Z,6.7
2019-03-21T23:38:49.800Z,6.7
2019-03-21T23:40:50.071Z,6.3
2019-03-21T23:42:50.211Z,7.0
2019-03-21T23:44:50.364Z,7.1
2019-03-21T23:46:49.703Z,7.4
2019-03-21T23:48:49.874Z,7.4
2019-03-21T23:50:49.993Z,6.9
2019-03-21T23:52:50.194Z,7.4
2019-03-21T23:54:50.281Z,7.1
2019-03-21T23:56:49.655Z,6.6
2019-03-21T23:58:49.849Z,6.6
